Time;durP1;ratioP1;P1;durP2;ratioP2;P2;SDS_P1;SDS_P2;PMS_P1;PMS_P2;Temp;Humidity;BMP_temperature;BMP_pressure;BME280_temperature;BME280_humidity;BME280_pressure;Samples;Min_cycle;Max_cycle;Signal;HPM_P1;HPM_P2
2020/12/21 00:00:09;;;;;;;19.12;13.03;;;;;;;5.50;72.51;102227.80;1736294;82;21151;-61
2020/12/21 00:02:44;;;;;;;19.50;12.90;;;;;;;5.50;72.35;102226.50;1747226;81;21519;-61
2020/12/21 00:05:12;;;;;;;20.23;13.33;;;;;;;5.51;72.48;102231.33;1709288;82;21313;-61
2020/12/21 00:07:39;;;;;;;20.32;13.20;;;;;;;5.49;72.41;102235.16;1730338;82;21107;-62
2020/12/21 00:10:07;;;;;;;21.05;13.78;;;;;;;5.49;72.46;102237.78;1719121;81;21104;-62
2020/12/21 00:15:11;;;;;;;33.13;24.27;;;;;;;5.50;72.37;102233.46;1791708;77;28228;-60
2020/12/21 00:17:38;;;;;;;26.73;17.77;;;;;;;5.42;72.51;102240.97;1761830;81;21130;-60
2020/12/21 00:20:06;;;;;;;26.87;16.77;;;;;;;5.49;72.40;102240.82;1741503;81;21128;-61
2020/12/21 00:22:34;;;;;;;25.82;16.07;;;;;;;5.51;72.35;102241.34;1755954;81;21161;-61
2020/12/21 00:25:01;;;;;;;24.75;17.07;;;;;;;5.53;72.35;102237.47;1761563;81;21594;-60
2020/12/21 00:27:29;;;;;;;24.77;15.70;;;;;;;5.56;72.41;102236.28;1758486;81;21126;-62
2020/12/21 00:29:56;;;;;;;23.60;15.23;;;;;;;5.60;72.33;102238.61;1699133;83;21212;-61
2020/12/21 00:32:24;;;;;;;27.37;16.50;;;;;;;5.60;72.29;102233.39;1698862;84;21158;-61
2020/12/21 00:34:53;;;;;;;24.25;15.98;;;;;;;5.61;72.28;102236.47;1727880;83;21174;-62
2020/12/21 00:37:21;;;;;;;28.60;17.55;;;;;;;5.62;72.26;102239.13;1722131;83;21178;-61
2020/12/21 00:39:49;;;;;;;28.62;18.17;;;;;;;5.60;72.41;102233.39;1728204;83;21154;-62
2020/12/21 00:42:17;;;;;;;26.37;17.87;;;;;;;5.61;72.43;102235.16;1728361;83;21601;-62
2020/12/21 00:44:45;;;;;;;30.45;18.00;;;;;;;5.60;72.34;102233.39;1720979;83;21190;-62
2020/12/21 00:47:12;;;;;;;25.72;16.50;;;;;;;5.58;72.41;102226.78;1707343;83;21142;-61
2020/12/21 00:49:40;;;;;;;26.23;16.32;;;;;;;5.59;72.42;102231.61;1728097;83;21200;-61
2020/12/21 00:52:08;;;;;;;24.57;15.83;;;;;;;5.58;72.40;102232.44;1727964;83;21610;-62
2020/12/21 00:54:36;;;;;;;27.82;16.77;;;;;;;5.58;72.36;102228.52;1728051;83;21138;-62
2020/12/21 00:57:05;;;;;;;26.65;16.50;;;;;;;5.59;72.38;102233.78;1727378;83;21179;-62
2020/12/21 00:59:33;;;;;;;24.05;15.80;;;;;;;5.60;72.40;102232.95;1718301;83;21223;-62
2020/12/21 01:02:00;;;;;;;28.95;17.37;;;;;;;5.64;72.28;102225.71;1728151;83;21178;-62
2020/12/21 01:04:28;;;;;;;28.38;17.32;;;;;;;5.65;72.18;102224.00;1724530;81;21138;-61
2020/12/21 01:06:55;;;;;;;27.10;17.32;;;;;;;5.62;72.28;102213.00;1728018;83;21161;-61
2020/12/21 01:09:23;;;;;;;27.52;17.02;;;;;;;5.61;72.42;102217.75;1708816;83;21178;-61
2020/12/21 01:11:53;;;;;;;29.10;16.85;;;;;;;5.63;72.40;102219.14;1728182;83;21331;-61
2020/12/21 01:14:21;;;;;;;30.35;18.25;;;;;;;5.64;72.29;102219.61;1721647;83;21179;-61
2020/12/21 01:16:49;;;;;;;30.37;18.40;;;;;;;5.63;72.34;102221.31;1749515;82;21137;-62
2020/12/21 01:19:16;;;;;;;27.70;17.00;;;;;;;5.65;72.42;102221.39;1756760;81;21158;-62
2020/12/21 01:21:45;;;;;;;30.12;18.12;;;;;;;5.65;72.42;102220.08;1756271;81;21154;-63
2020/12/21 01:24:12;;;;;;;27.80;17.73;;;;;;;5.60;72.56;102217.71;1755879;81;21182;-63
2020/12/21 01:26:40;;;;;;;25.32;16.75;;;;;;;5.61;72.61;102216.87;1755134;82;21570;-63
2020/12/21 01:29:08;;;;;;;27.15;16.48;;;;;;;5.61;72.55;102212.96;1750073;82;21633;-63
2020/12/21 01:31:35;;;;;;;28.15;17.65;;;;;;;5.61;72.54;102213.84;1755375;81;21138;-63
2020/12/21 01:34:04;;;;;;;31.25;17.27;;;;;;;5.61;72.64;102215.14;1748682;81;21154;-62
2020/12/21 01:36:32;;;;;;;27.27;16.80;;;;;;;5.60;72.60;102214.66;1723319;82;21152;-62
2020/12/21 01:38:59;;;;;;;29.77;18.07;;;;;;;5.61;72.60;102213.84;1756051;82;21158;-61
2020/12/21 01:41:28;;;;;;;29.65;18.30;;;;;;;5.58;72.60;102209.80;1755514;81;21148;-63
2020/12/21 01:43:56;;;;;;;27.85;18.02;;;;;;;5.58;72.67;102210.23;1747951;81;21567;-63
2020/12/21 01:46:24;;;;;;;27.20;16.52;;;;;;;5.57;72.69;102204.53;1747898;82;21215;-62
2020/12/21 01:48:51;;;;;;;27.90;17.37;;;;;;;5.56;72.69;102205.36;1756122;82;21585;-62
2020/12/21 01:51:25;;;;;;;27.02;17.17;;;;;;;5.56;72.71;102203.63;1749902;81;21134;-62
2020/12/21 01:53:53;;;;;;;31.90;19.32;;;;;;;5.57;72.67;102200.61;1756441;81;21106;-62
2020/12/21 01:56:20;;;;;;;27.40;17.00;;;;;;;5.56;72.72;102202.75;1755437;81;21150;-62
2020/12/21 01:58:48;;;;;;;28.00;18.00;;;;;;;5.55;72.77;102198.36;1746937;81;21632;-62
2020/12/21 02:01:17;;;;;;;26.90;17.30;;;;;;;5.56;72.75;102194.91;1746922;82;21130;-62
2020/12/21 02:03:45;;;;;;;28.77;17.27;;;;;;;5.56;72.71;102190.56;1740413;82;21210;-62
2020/12/21 02:06:12;;;;;;;28.67;17.50;;;;;;;5.55;72.68;102191.83;1757734;81;21176;-62
2020/12/21 02:08:40;;;;;;;26.95;17.42;;;;;;;5.55;72.73;102192.70;1747059;81;21150;-61
2020/12/21 02:11:08;;;;;;;29.45;18.17;;;;;;;5.59;72.62;102189.81;1755319;80;21150;-62
2020/12/21 02:13:36;;;;;;;27.35;17.00;;;;;;;5.56;72.76;102187.08;1741430;81;21547;-62
2020/12/21 02:16:04;;;;;;;27.75;17.48;;;;;;;5.58;72.75;102185.42;1756075;80;21310;-62
2020/12/21 02:18:31;;;;;;;28.40;16.75;;;;;;;5.57;72.71;102181.90;1755354;81;21142;-62
2020/12/21 02:20:58;;;;;;;26.30;17.00;;;;;;;5.57;72.73;102183.20;1756196;80;21170;-62
2020/12/21 02:23:26;;;;;;;27.45;17.42;;;;;;;5.59;72.68;102181.97;1756381;81;21090;-62
2020/12/21 02:25:54;;;;;;;27.42;17.17;;;;;;;5.60;72.61;102178.09;1756896;81;21162;-62
2020/12/21 02:28:21;;;;;;;27.37;16.20;;;;;;;5.61;72.68;102182.92;1742401;81;21700;-63
2020/12/21 02:30:49;;;;;;;24.10;16.10;;;;;;;5.61;72.75;102185.53;1748655;80;21143;-61
2020/12/21 02:33:16;;;;;;;26.68;16.60;;;;;;;5.63;72.78;102183.87;1755912;82;21238;-63
2020/12/21 02:35:44;;;;;;;22.77;15.30;;;;;;;5.64;72.77;102185.64;1755886;82;21207;-61
2020/12/21 02:38:11;;;;;;;27.05;16.87;;;;;;;5.65;72.76;102184.81;1735596;82;21124;-62
2020/12/21 02:40:41;;;;;;;26.77;17.55;;;;;;;5.68;72.74;102184.03;1752189;81;21559;-62
2020/12/21 02:43:10;;;;;;;24.20;16.02;;;;;;;5.68;72.75;102178.80;1753987;81;21712;-62
2020/12/21 02:45:38;;;;;;;24.95;15.32;;;;;;;5.67;72.72;102180.54;1745092;82;21515;-61
2020/12/21 02:48:05;;;;;;;24.85;15.78;;;;;;;5.68;72.80;102186.64;1747660;82;21627;-62
2020/12/21 02:50:33;;;;;;;25.65;17.45;;;;;;;5.68;72.77;102183.63;1756006;80;21127;-62
2020/12/21 02:53:00;;;;;;;23.38;16.23;;;;;;;5.69;72.78;102180.58;1756204;81;21086;-63
2020/12/21 02:55:29;;;;;;;26.48;15.43;;;;;;;5.71;72.76;102187.66;1727229;82;21163;-62
2020/12/21 02:57:56;;;;;;;24.87;15.88;;;;;;;5.72;72.78;102189.84;1743022;82;21599;-63
2020/12/21 03:00:24;;;;;;;28.35;16.75;;;;;;;5.71;72.79;102190.27;1753413;81;21216;-62
2020/12/21 03:02:52;;;;;;;26.07;16.65;;;;;;;5.70;72.76;102185.87;1757446;81;21136;-62
2020/12/21 03:05:19;;;;;;;27.45;16.60;;;;;;;5.69;72.77;102185.80;1755185;80;21130;-62
2020/12/21 03:07:46;;;;;;;27.02;16.10;;;;;;;5.68;72.78;102186.64;1755965;82;21108;-63
2020/12/21 03:10:14;;;;;;;25.20;16.77;;;;;;;5.74;72.70;102180.34;1755958;82;21185;-63
2020/12/21 03:12:42;;;;;;;24.63;16.07;;;;;;;5.71;72.59;102175.91;1755132;81;21554;-62
2020/12/21 03:15:09;;;;;;;28.57;15.65;;;;;;;5.67;72.65;102179.23;1750887;81;21156;-62
2020/12/21 03:17:37;;;;;;;30.57;17.07;;;;;;;5.67;72.65;102179.23;1748058;82;21162;-63
2020/12/21 03:20:05;;;;;;;27.13;16.10;;;;;;;5.68;72.69;102178.40;1667912;84;21216;-62
2020/12/21 03:22:32;;;;;;;26.80;16.93;;;;;;;5.70;72.68;102179.75;1746973;82;21127;-62
2020/12/21 03:25:00;;;;;;;23.20;13.83;;;;;;;5.69;72.71;102180.18;1712059;83;21139;-61
2020/12/21 03:27:29;;;;;;;25.52;16.17;;;;;;;5.70;72.56;102179.34;1748055;82;21135;-63
2020/12/21 03:29:57;;;;;;;23.27;15.35;;;;;;;5.69;72.67;102180.58;1712128;84;21555;-62
2020/12/21 03:32:25;;;;;;;23.70;15.83;;;;;;;5.65;72.85;102183.51;1747123;82;21158;-61
2020/12/21 03:34:52;;;;;;;28.23;17.40;;;;;;;5.68;72.83;102182.72;1712256;84;21578;-61
2020/12/21 03:37:20;;;;;;;24.30;14.55;;;;;;;5.59;73.03;102184.58;1747918;82;21177;-63
2020/12/21 03:39:47;;;;;;;25.60;15.38;;;;;;;5.60;72.98;102179.83;1745252;81;21192;-62
2020/12/21 03:42:15;;;;;;;25.80;15.45;;;;;;;5.59;73.00;102181.54;1702808;84;21187;-62
2020/12/21 03:44:42;;;;;;;25.70;14.90;;;;;;;5.59;73.04;102176.75;1706475;84;21626;-61
2020/12/21 03:47:10;;;;;;;25.97;15.32;;;;;;;5.62;72.95;102180.78;1712115;84;21151;-63
2020/12/21 03:49:38;;;;;;;25.45;15.15;;;;;;;5.61;72.95;102187.71;1748380;82;21199;-62
2020/12/21 03:52:05;;;;;;;23.62;14.93;;;;;;;5.62;72.97;102182.96;1747410;82;21130;-63
2020/12/21 03:54:33;;;;;;;25.52;15.70;;;;;;;5.63;73.01;102183.44;1747820;82;21535;-62
2020/12/21 03:57:00;;;;;;;24.02;15.08;;;;;;;5.64;72.99;102181.30;1747796;82;21155;-62
2020/12/21 03:59:27;;;;;;;26.10;15.03;;;;;;;5.63;72.97;102174.29;1741742;81;21164;-61
2020/12/21 04:01:55;;;;;;;26.17;15.78;;;;;;;5.63;72.91;102167.76;1747888;82;21146;-62
2020/12/21 04:04:22;;;;;;;26.07;15.35;;;;;;;5.62;73.01;102169.90;1747987;81;21168;-62
2020/12/21 04:06:52;;;;;;;26.37;15.20;;;;;;;5.65;72.95;102171.32;1747184;82;21145;-62
2020/12/21 04:09:19;;;;;;;30.43;16.75;;;;;;;5.64;72.93;102169.97;1746269;82;21308;-61
2020/12/21 04:11:47;;;;;;;24.95;15.13;;;;;;;5.63;72.90;102163.84;1747492;82;21159;-63
2020/12/21 04:14:14;;;;;;;24.82;14.75;;;;;;;5.62;72.94;102167.72;1745234;80;21205;-62
2020/12/21 04:16:42;;;;;;;25.88;15.93;;;;;;;5.59;73.11;102171.52;1745993;81;21143;-62
2020/12/21 04:19:10;;;;;;;28.30;16.37;;;;;;;5.59;73.13;102169.78;1745181;81;21561;-62
2020/12/21 04:21:37;;;;;;;27.10;15.83;;;;;;;5.62;73.14;102169.90;1754806;81;21138;-61
2020/12/21 04:24:05;;;;;;;30.10;15.85;;;;;;;5.61;73.11;102170.73;1743953;82;21190;-63
2020/12/21 04:26:32;;;;;;;27.73;15.55;;;;;;;5.61;73.03;102173.34;1755285;82;21159;-62
2020/12/21 04:29:00;;;;;;;27.77;16.20;;;;;;;5.61;73.11;102174.65;1755718;81;21154;-61
2020/12/21 04:31:27;;;;;;;27.37;14.70;;;;;;;5.60;73.06;102175.91;1742456;82;21164;-62
2020/12/21 04:33:55;;;;;;;29.65;15.35;;;;;;;5.59;73.14;102169.78;1754068;82;21122;-61
2020/12/21 04:36:22;;;;;;;31.60;16.57;;;;;;;5.61;73.21;102169.86;1754175;80;21134;-62
2020/12/21 04:38:53;;;;;;;28.70;15.98;;;;;;;5.60;73.05;102177.22;1747399;82;21668;-62
2020/12/21 04:41:20;;;;;;;27.05;15.38;;;;;;;5.55;73.29;102176.16;1752453;81;21219;-62
2020/12/21 04:43:47;;;;;;;32.10;16.87;;;;;;;5.53;73.33;102177.39;1752329;81;21521;-61
2020/12/21 04:46:15;;;;;;;28.47;16.48;;;;;;;5.53;73.40;102173.47;1755917;80;21190;-62
2020/12/21 04:48:44;;;;;;;30.05;16.70;;;;;;;5.55;73.42;102177.46;1753247;81;21158;-62
2020/12/21 04:51:12;;;;;;;28.65;15.72;;;;;;;5.56;73.38;102177.50;1755890;82;21191;-63
2020/12/21 04:53:40;;;;;;;35.23;17.37;;;;;;;5.56;73.33;102181.85;1722697;82;21168;-61
2020/12/21 04:56:08;;;;;;;31.00;16.23;;;;;;;5.56;73.30;102184.47;1749141;81;21163;-61
2020/12/21 04:58:35;;;;;;;27.30;15.88;;;;;;;5.57;73.27;102186.25;1748831;81;21145;-61
2020/12/21 05:01:03;;;;;;;33.40;17.23;;;;;;;5.56;73.25;102189.26;1750207;81;21315;-62
2020/12/21 05:03:31;;;;;;;33.20;16.62;;;;;;;5.54;73.37;102184.83;1738302;82;21176;-62
2020/12/21 05:06:06;;;;;;;31.73;16.35;;;;;;;5.54;73.38;102185.70;1746405;81;21122;-61
2020/12/21 05:08:34;;;;;;;31.10;15.60;;;;;;;5.55;73.30;102181.38;1750357;81;21282;-61
2020/12/21 05:11:04;;;;;;;34.33;16.35;;;;;;;5.55;73.26;102181.38;1742187;82;21107;-62
2020/12/21 05:13:34;;;;;;;33.13;16.85;;;;;;;5.56;73.32;102183.16;1752515;81;21174;-62
2020/12/21 05:16:02;;;;;;;30.75;15.60;;;;;;;5.57;73.28;102188.42;1734350;81;21568;-62
2020/12/21 05:18:31;;;;;;;29.60;15.78;;;;;;;5.58;73.40;102191.52;1723539;82;21131;-62
2020/12/21 05:21:01;;;;;;;36.25;16.70;;;;;;;5.59;73.19;102186.77;1739501;82;21160;-62
2020/12/21 05:23:29;;;;;;;31.23;16.35;;;;;;;5.58;73.12;102190.20;1741387;82;21111;-63
2020/12/21 05:26:08;;;;;;;29.27;15.83;;;;;;;5.57;73.25;102181.02;1745952;81;21600;-61
2020/12/21 05:28:37;;;;;;;28.67;15.98;;;;;;;5.59;73.20;102188.50;1741335;82;21593;-62
2020/12/21 05:31:08;;;;;;;30.95;16.52;;;;;;;5.59;72.98;102191.11;1740535;82;21163;-62
2020/12/21 05:33:46;;;;;;;32.58;15.85;;;;;;;5.57;72.97;102188.42;1745045;81;21301;-62
2020/12/21 05:36:22;;;;;;;25.65;14.35;;;;;;;5.56;73.04;102193.61;1727396;82;21165;-62
2020/12/21 05:38:58;;;;;;;29.18;16.23;;;;;;;5.55;73.12;102192.70;1728150;82;21131;-61
2020/12/21 05:41:25;;;;;;;28.35;14.10;;;;;;;5.56;73.08;102197.53;1736322;81;21641;-62
2020/12/21 05:43:53;;;;;;;37.30;16.17;;;;;;;5.57;73.22;102195.39;1726551;81;21134;-61
2020/12/21 05:46:24;;;;;;;28.77;14.70;;;;;;;5.63;73.41;102192.58;1741334;82;21277;-62
2020/12/21 05:48:54;;;;;;;28.42;13.62;;;;;;;5.69;73.40;102191.94;1725034;82;21135;-62
2020/12/21 05:51:30;;;;;;;27.52;14.50;;;;;;;5.75;73.35;102199.09;1740798;81;21188;-62
2020/12/21 05:54:01;;;;;;;31.15;15.15;;;;;;;5.78;73.46;102201.39;1749877;81;21159;-62
2020/12/21 05:56:34;;;;;;;33.30;15.00;;;;;;;5.81;73.36;102208.05;1711727;82;21153;-62
2020/12/21 05:59:03;;;;;;;34.35;14.60;;;;;;;5.83;73.34;102208.52;1734332;82;21166;-63
2020/12/21 06:01:31;;;;;;;32.75;15.05;;;;;;;5.85;73.36;102205.14;1741176;81;21131;-62
2020/12/21 06:04:03;;;;;;;32.45;14.55;;;;;;;5.84;73.09;102215.12;1739394;81;21103;-62
2020/12/21 06:06:33;;;;;;;26.73;13.30;;;;;;;5.83;73.18;102212.44;1721199;82;21516;-62
2020/12/21 06:09:03;;;;;;;30.88;14.10;;;;;;;5.85;73.13;102212.98;1738228;82;21107;-62
2020/12/21 06:11:39;;;;;;;;;;;;;;;5.85;73.01;102216.91;1747753;81;21156;-62
2020/12/21 06:14:14;;;;;;;30.37;13.32;;;;;;;5.88;73.13;102214.41;1740653;82;20146;-62
2020/12/21 06:16:42;;;;;;;29.07;13.68;;;;;;;5.89;73.08;102212.27;1728137;82;21594;-62
2020/12/21 06:19:14;;;;;;;33.70;15.80;;;;;;;5.90;73.09;102215.36;1726671;81;21153;-62
2020/12/21 06:21:49;;;;;;;31.05;13.60;;;;;;;5.91;72.96;102218.44;1732579;82;21128;-62
2020/12/21 06:24:19;;;;;;;33.53;14.68;;;;;;;5.91;72.98;102220.15;1726837;82;21289;-61
2020/12/21 06:26:47;;;;;;;24.60;12.55;;;;;;;5.92;72.87;102212.38;1735752;82;21171;-62
2020/12/21 06:29:20;;;;;;;25.68;12.80;;;;;;;5.91;72.77;102213.61;1735128;82;21101;-62
2020/12/21 06:31:57;;;;;;;24.35;13.20;;;;;;;5.89;72.82;102204.83;1728964;82;21144;-63
2020/12/21 06:34:37;;;;;;;24.37;13.15;;;;;;;5.90;72.68;102211.44;1739753;81;21120;-62
2020/12/21 06:37:19;;;;;;;22.67;11.78;;;;;;;5.90;72.61;102212.73;1729882;82;21168;-64
2020/12/21 06:40:01;;;;;;;26.33;13.00;;;;;;;5.89;72.62;102219.20;1731466;82;21150;-62
2020/12/21 06:42:29;;;;;;;22.07;11.95;;;;;;;5.89;72.56;102213.97;1740767;82;21468;-62
2020/12/21 06:44:57;;;;;;;23.73;12.95;;;;;;;5.89;72.92;102219.20;1740670;81;21154;-61
2020/12/21 06:47:26;;;;;;;25.43;13.78;;;;;;;5.90;72.79;102220.58;1738026;82;21158;-62
2020/12/21 06:49:54;;;;;;;24.55;13.62;;;;;;;5.86;72.98;102216.07;1729340;81;21163;-63
2020/12/21 06:52:22;;;;;;;21.87;12.40;;;;;;;5.85;72.84;102218.61;1740870;82;21600;-64
2020/12/21 06:54:50;;;;;;;21.45;12.35;;;;;;;5.84;72.73;102220.34;1731587;82;21583;-63
2020/12/21 06:57:18;;;;;;;22.00;11.38;;;;;;;5.84;72.65;102223.36;1732174;82;21278;-62
2020/12/21 06:59:47;;;;;;;22.10;11.63;;;;;;;5.87;72.56;102225.69;1732736;81;21182;-65
2020/12/21 07:02:15;;;;;;;19.40;11.70;;;;;;;5.86;72.41;102223.91;1731763;82;21124;-62
2020/12/21 07:04:44;;;;;;;18.95;10.45;;;;;;;5.78;72.73;102226.66;1733349;82;21192;-62
2020/12/21 07:07:12;;;;;;;23.00;11.63;;;;;;;5.80;72.84;102231.09;1724181;82;21302;-64
2020/12/21 07:09:39;;;;;;;21.12;12.18;;;;;;;5.79;72.68;102234.53;1723985;82;21506;-62
2020/12/21 07:12:08;;;;;;;24.15;12.45;;;;;;;5.79;72.79;102234.53;1723342;82;21155;-61
2020/12/21 07:14:39;;;;;;;21.60;12.63;;;;;;;5.84;72.60;102236.03;1725474;82;21217;-62
2020/12/21 07:17:12;;;;;;;19.00;11.73;;;;;;;5.87;72.73;102236.15;1695010;83;21704;-63
2020/12/21 07:19:42;;;;;;;21.45;11.73;;;;;;;5.92;72.54;102233.69;1724915;82;21143;-64
2020/12/21 07:22:12;;;;;;;18.42;10.72;;;;;;;5.91;72.78;102231.51;1726025;83;21182;-64
2020/12/21 07:24:41;;;;;;;19.67;11.30;;;;;;;6.01;72.41;102228.84;1724885;82;21153;-64
2020/12/21 07:27:09;;;;;;;19.98;10.32;;;;;;;6.04;72.24;102225.43;1715167;83;21166;-64
2020/12/21 07:29:38;;;;;;;18.23;10.78;;;;;;;5.96;72.55;102226.44;1725496;82;21722;-65
2020/12/21 07:32:06;;;;;;;16.97;10.32;;;;;;;6.00;72.40;102227.42;1725957;83;21218;-63
2020/12/21 07:34:35;;;;;;;17.60;10.13;;;;;;;6.02;72.12;102223.17;1724306;82;21576;-64
2020/12/21 07:37:11;;;;;;;20.25;10.70;;;;;;;6.08;71.98;102228.62;1725837;83;21547;-63
2020/12/21 07:39:39;;;;;;;22.67;11.90;;;;;;;6.10;71.96;102227.87;1726124;82;21122;-63
2020/12/21 07:42:09;;;;;;;20.95;11.43;;;;;;;6.09;71.92;102230.41;1726055;83;21142;-63
2020/12/21 07:44:37;;;;;;;19.50;10.32;;;;;;;6.04;72.13;102228.05;1730047;82;21159;-61
2020/12/21 07:47:18;;;;;;;16.93;10.28;;;;;;;6.03;72.03;102230.19;1725456;83;21186;-63
2020/12/21 07:49:46;;;;;;;16.35;9.93;;;;;;;6.10;71.92;102230.48;1710218;83;21206;-61
2020/12/21 07:52:15;;;;;;;14.80;8.73;;;;;;;6.12;71.87;102233.14;1718001;83;21151;-63
2020/12/21 07:54:43;;;;;;;16.82;9.55;;;;;;;6.13;71.93;102231.43;1725498;82;21162;-61
2020/12/21 07:57:13;;;;;;;16.17;9.85;;;;;;;6.14;71.81;102235.39;1690705;85;21292;-61
2020/12/21 07:59:42;;;;;;;14.10;8.50;;;;;;;6.14;71.79;102239.75;1690764;83;21605;-61
2020/12/21 08:02:10;;;;;;;15.63;9.63;;;;;;;6.07;71.58;102243.44;1725784;83;21285;-63
2020/12/21 08:04:37;;;;;;;14.60;9.18;;;;;;;6.13;71.41;102247.12;1726127;82;21578;-61
2020/12/21 08:07:10;;;;;;;15.00;9.08;;;;;;;6.14;71.39;102248.47;1725629;83;21328;-64
2020/12/21 08:09:38;;;;;;;14.43;8.63;;;;;;;6.14;71.39;102251.08;1722966;82;21135;-62
2020/12/21 08:12:14;;;;;;;13.83;8.88;;;;;;;6.12;71.05;102250.13;1726047;83;21185;-63
2020/12/21 08:14:44;;;;;;;14.68;8.45;;;;;;;6.16;70.93;102247.23;1725639;83;21167;-61
2020/12/21 08:17:15;;;;;;;14.50;8.23;;;;;;;6.12;71.02;102246.21;1752073;82;21268;-62
2020/12/21 08:19:48;;;;;;;15.28;8.45;;;;;;;6.01;71.24;102244.52;1756084;80;21154;-61
2020/12/21 08:22:23;;;;;;;13.15;7.75;;;;;;;6.02;71.09;102240.17;1753254;81;21282;-62
2020/12/21 08:25:10;;;;;;;16.93;9.05;;;;;;;6.01;71.01;102236.68;1755075;80;21205;-65
2020/12/21 08:27:42;;;;;;;14.93;8.48;;;;;;;5.99;71.17;102234.39;1755945;82;21538;-64
2020/12/21 08:30:13;;;;;;;17.45;9.45;;;;;;;5.99;71.46;102237.01;1755968;82;21187;-61
2020/12/21 08:32:42;;;;;;;16.25;9.20;;;;;;;6.13;71.43;102236.66;1754788;81;21115;-61
2020/12/21 08:35:10;;;;;;;16.90;8.78;;;;;;;6.15;71.33;102235.86;1755938;80;21156;-61
2020/12/21 08:37:38;;;;;;;19.65;9.13;;;;;;;6.17;71.07;102237.25;1756160;82;21186;-63
2020/12/21 08:40:13;;;;;;;17.65;9.68;;;;;;;6.21;71.51;102228.64;1756176;80;21592;-62
2020/12/21 08:42:41;;;;;;;17.77;9.45;;;;;;;6.31;71.30;102232.06;1756084;81;21138;-62
2020/12/21 08:45:09;;;;;;;18.62;10.38;;;;;;;6.36;71.37;102229.20;1756158;80;21134;-62
2020/12/21 08:47:37;;;;;;;16.95;9.70;;;;;;;6.35;70.94;102227.84;1756032;82;21171;-63
2020/12/21 08:50:06;;;;;;;18.98;9.93;;;;;;;6.42;70.72;102220.66;1756126;80;21169;-61
2020/12/21 08:52:33;;;;;;;20.57;11.12;;;;;;;6.49;70.10;102220.03;1755990;81;21122;-61
2020/12/21 08:55:01;;;;;;;19.90;10.55;;;;;;;6.55;69.76;102217.63;1756437;81;21276;-62
2020/12/21 08:57:30;;;;;;;19.57;9.53;;;;;;;6.54;69.77;102221.09;1756147;81;21136;-61
2020/12/21 08:59:57;;;;;;;21.85;10.43;;;;;;;6.55;69.72;102213.71;1748100;80;21188;-61
2020/12/21 09:02:25;;;;;;;17.90;9.33;;;;;;;6.52;69.56;102208.38;1752447;81;21592;-62
2020/12/21 09:04:53;;;;;;;14.90;9.33;;;;;;;6.57;69.69;102212.47;1756049;82;21154;-63
2020/12/21 09:07:22;;;;;;;16.73;9.35;;;;;;;6.49;69.36;102204.34;1746737;82;21178;-61
2020/12/21 09:09:50;;;;;;;15.90;8.75;;;;;;;6.39;69.83;102200.53;1737208;81;21160;-61
2020/12/21 09:12:18;;;;;;;20.08;10.72;;;;;;;6.35;69.77;102192.54;1752628;81;21194;-62
2020/12/21 09:14:45;;;;;;;18.15;9.18;;;;;;;6.29;70.01;102191.02;1756145;80;21170;-61
2020/12/21 09:17:12;;;;;;;18.02;10.15;;;;;;;6.29;69.99;102184.48;1737715;82;21167;-62
2020/12/21 09:19:40;;;;;;;17.92;10.15;;;;;;;6.29;70.05;102189.71;1741359;81;21582;-62
2020/12/21 09:22:07;;;;;;;24.15;11.68;;;;;;;6.32;70.26;102184.16;1741183;82;21396;-61
2020/12/21 09:24:35;;;;;;;19.85;11.80;;;;;;;6.33;70.50;102178.52;1741204;82;21175;-61
2020/12/21 09:27:02;;;;;;;20.95;11.55;;;;;;;6.37;70.42;102171.25;1733053;82;21115;-62
2020/12/21 09:29:30;;;;;;;21.62;10.20;;;;;;;6.35;70.73;102176.84;1741767;82;21135;-62
2020/12/21 09:31:57;;;;;;;20.08;11.18;;;;;;;6.46;70.27;102165.43;1742533;82;21159;-63
2020/12/21 09:34:25;;;;;;;20.20;10.82;;;;;;;6.48;70.10;102162.45;1735851;81;21634;-62
2020/12/21 09:36:53;;;;;;;21.23;9.88;;;;;;;6.47;70.07;102158.05;1731016;82;21629;-62
2020/12/21 09:39:21;;;;;;;20.57;10.43;;;;;;;6.47;70.06;102155.00;1732260;81;21269;-62
2020/12/21 09:41:49;;;;;;;22.80;10.88;;;;;;;6.49;70.15;102148.53;1740934;82;21610;-61
2020/12/21 09:44:16;;;;;;;21.02;11.15;;;;;;;6.51;70.02;102152.96;1672609;85;21135;-63
2020/12/21 09:46:44;;;;;;;20.57;11.08;;;;;;;6.51;69.74;102153.39;1741092;82;21187;-62
2020/12/21 09:49:11;;;;;;;23.92;10.58;;;;;;;6.48;69.61;102152.86;1747470;81;21541;-63
2020/12/21 09:51:40;;;;;;;20.00;11.28;;;;;;;6.42;69.67;102146.55;1741123;82;21206;-63
2020/12/21 09:54:07;;;;;;;19.70;11.18;;;;;;;6.39;69.95;102150.84;1740199;82;21574;-61
2020/12/21 09:56:35;;;;;;;19.57;9.68;;;;;;;6.44;69.79;102148.36;1725551;82;21597;-61
2020/12/21 09:59:02;;;;;;;24.72;12.55;;;;;;;6.45;69.84;102147.95;1747302;81;21638;-62
2020/12/21 10:01:30;;;;;;;22.10;10.93;;;;;;;6.50;70.20;102144.64;1739236;82;21176;-62
2020/12/21 10:03:59;;;;;;;19.82;10.88;;;;;;;6.53;70.38;102139.95;1741412;81;21147;-61
2020/12/21 10:06:27;;;;;;;17.35;10.58;;;;;;;6.62;70.26;102140.66;1749084;81;21299;-63
2020/12/21 10:08:54;;;;;;;21.33;10.32;;;;;;;6.65;70.21;102138.14;1741928;81;21131;-63
2020/12/21 10:11:23;;;;;;;23.38;12.05;;;;;;;6.70;70.09;102140.05;1729362;82;21630;-62
2020/12/21 10:13:50;;;;;;;21.80;10.78;;;;;;;6.73;69.93;102134.45;1736575;81;21571;-61
2020/12/21 10:16:18;;;;;;;17.52;9.50;;;;;;;6.74;69.81;102137.53;1747599;81;21883;-61
2020/12/21 10:18:46;;;;;;;17.25;9.88;;;;;;;6.70;69.53;102130.89;1736690;81;21131;-62
2020/12/21 10:21:17;;;;;;;18.60;9.80;;;;;;;6.65;69.73;102135.52;1738706;82;21308;-62
2020/12/21 10:23:45;;;;;;;21.10;11.45;;;;;;;6.66;69.83;102138.61;1722867;81;21539;-61
2020/12/21 10:26:12;;;;;;;17.30;9.35;;;;;;;6.71;70.07;102135.72;1741165;82;21698;-61
2020/12/21 10:28:41;;;;;;;18.82;10.55;;;;;;;6.76;69.95;102134.15;1740548;82;21625;-61
2020/12/21 10:31:11;;;;;;;15.50;8.50;;;;;;;6.80;70.18;102129.48;1740867;82;21635;-60
2020/12/21 10:33:41;;;;;;;17.50;9.28;;;;;;;6.83;69.66;102126.96;1714637;82;21272;-61
2020/12/21 10:39:00;;;;;;;17.15;9.35;;;;;;;6.90;69.48;102118.86;1830071;77;22157;-59
2020/12/21 10:41:32;;;;;;;15.30;9.88;;;;;;;6.87;69.75;102125.31;1780943;80;21617;-59
2020/12/21 10:44:00;;;;;;;16.62;9.70;;;;;;;6.94;69.73;102125.07;1790927;80;21578;-61
2020/12/21 10:46:28;;;;;;;16.60;9.35;;;;;;;6.97;69.85;102117.31;1771479;80;21212;-60
2020/12/21 10:48:55;;;;;;;15.38;9.20;;;;;;;6.99;69.77;102120.87;1792186;80;21526;-62
2020/12/21 10:51:31;;;;;;;15.95;9.03;;;;;;;6.96;69.25;102116.44;1770352;79;21141;-62
2020/12/21 10:53:59;;;;;;;14.78;8.90;;;;;;;6.96;69.09;102112.92;1775261;80;21146;-62
2020/12/21 10:56:28;;;;;;;13.53;8.33;;;;;;;6.97;69.18;102112.98;1773002;79;21554;-61
2020/12/21 10:58:56;;;;;;;13.88;8.33;;;;;;;6.97;69.11;102106.84;1788959;80;21138;-61
2020/12/21 11:01:24;;;;;;;17.30;9.63;;;;;;;7.01;69.03;102108.72;1792995;79;21661;-62
2020/12/21 11:03:51;;;;;;;16.37;9.68;;;;;;;6.98;69.01;102104.28;1787688;80;21154;-60
2020/12/21 11:06:22;;;;;;;16.20;9.43;;;;;;;6.99;68.92;102102.55;1784145;80;21151;-61
2020/12/21 11:11:32;;;;;;;14.53;8.53;;;;;;;7.02;68.71;102101.33;1740284;82;21158;-61
2020/12/21 11:14:00;;;;;;;17.90;9.75;;;;;;;7.04;68.87;102097.47;1726558;82;21315;-61
2020/12/21 11:16:27;;;;;;;16.05;9.10;;;;;;;7.11;68.83;102104.23;1735384;81;21546;-61
2020/12/21 11:18:55;;;;;;;14.85;8.63;;;;;;;7.16;68.30;102100.42;1741639;81;21142;-63
2020/12/21 11:21:22;;;;;;;16.25;8.60;;;;;;;7.13;68.51;102097.31;1739713;81;21617;-61
2020/12/21 11:23:52;;;;;;;19.77;8.78;;;;;;;7.08;68.56;102092.35;1736300;82;21130;-63
2020/12/21 11:26:20;;;;;;;15.95;8.38;;;;;;;7.00;68.22;102093.84;1741965;81;21588;-62
2020/12/21 11:28:48;;;;;;;16.57;9.33;;;;;;;6.94;68.49;102089.73;1742044;81;21558;-61
2020/12/21 11:31:17;;;;;;;15.00;8.68;;;;;;;6.99;68.36;102092.06;1741229;81;21123;-63
2020/12/21 11:33:44;;;;;;;16.70;9.88;;;;;;;6.93;68.64;102093.19;1730918;82;21574;-61